Alamo, Tennessee
Current Conditions -  °F | °C
As of 12:53 AM on Wednesday 22 Oct 2014 (Local Time) from KMKL Reporting Station
Clear Clear  
Wind Chill: 53°   Ceiling: Unl
Heat Index: 53°   Visibility: 10mi
Dew Point: 45°   Wind: 6mph
Humidity: 74%   Direction: 50°NE
Pressure: 30.13"   Gusts: NA
Location:  35.78°N, 89.12°W
Report Text: KMKL 220553Z AUTO 05005KT 10SM CLR 12/07 A3013 RMK AO2 SLP200 T01170072 10150 20117 402390072 53002
Loading
Personal Weather Stations






























Interactive Weather Map New forecast layout! Learn more

10-Day Weather Forecast

Advertisements
Track Severe Weather on mobile